sensor_id;sensor_type;location;lat;lon;timestamp;pressure;altitude;pressure_sealevel;temperature;humidity
17821;BME280;9035;42.554;23.188;2022-09-20T00:02:09;90002.19;;;11.06;59.93
17821;BME280;9035;42.554;23.188;2022-09-20T00:04:36;89991.78;;;10.82;61.18
17821;BME280;9035;42.554;23.188;2022-09-20T00:07:04;89997.75;;;10.95;61.41
17821;BME280;9035;42.554;23.188;2022-09-20T00:09:30;90000.84;;;10.88;61.64
17821;BME280;9035;42.554;23.188;2022-09-20T00:11:57;90000.31;;;10.83;61.04
17821;BME280;9035;42.554;23.188;2022-09-20T00:14:24;90000.63;;;10.81;60.99
17821;BME280;9035;42.554;23.188;2022-09-20T00:16:51;90005.44;;;10.59;60.46
17821;BME280;9035;42.554;23.188;2022-09-20T00:19:20;90001.09;;;10.51;60.32
17821;BME280;9035;42.554;23.188;2022-09-20T00:21:47;90011.69;;;10.46;60.64
17821;BME280;9035;42.554;23.188;2022-09-20T00:24:15;90013.66;;;10.29;59.83
17821;BME280;9035;42.554;23.188;2022-09-20T00:26:42;90010.81;;;10.22;59.71
17821;BME280;9035;42.554;23.188;2022-09-20T00:29:09;90026.44;;;10.45;59.99
17821;BME280;9035;42.554;23.188;2022-09-20T00:31:37;90026.34;;;10.22;59.88
17821;BME280;9035;42.554;23.188;2022-09-20T00:34:05;90029.97;;;10.29;59.87
17821;BME280;9035;42.554;23.188;2022-09-20T00:36:50;90023.75;;;10.42;59.21
17821;BME280;9035;42.554;23.188;2022-09-20T00:39:18;90026.28;;;10.30;59.55
17821;BME280;9035;42.554;23.188;2022-09-20T00:41:45;90025.50;;;10.50;59.47
17821;BME280;9035;42.554;23.188;2022-09-20T00:44:40;90029.00;;;10.66;58.58
17821;BME280;9035;42.554;23.188;2022-09-20T00:47:10;90021.75;;;10.59;58.33
17821;BME280;9035;42.554;23.188;2022-09-20T00:49:38;90010.78;;;10.42;58.88
17821;BME280;9035;42.554;23.188;2022-09-20T00:52:05;90021.81;;;10.51;58.84
17821;BME280;9035;42.554;23.188;2022-09-20T00:54:33;90014.75;;;10.72;57.48
17821;BME280;9035;42.554;23.188;2022-09-20T00:57:00;90002.50;;;10.48;58.01
17821;BME280;9035;42.554;23.188;2022-09-20T00:59:29;90011.47;;;10.51;58.16
17821;BME280;9035;42.554;23.188;2022-09-20T01:02:01;90013.00;;;10.64;58.51
17821;BME280;9035;42.554;23.188;2022-09-20T01:04:29;90021.03;;;10.38;58.85
17821;BME280;9035;42.554;23.188;2022-09-20T01:06:58;90008.06;;;10.38;59.25
17821;BME280;9035;42.554;23.188;2022-09-20T01:09:26;90008.59;;;10.12;59.75
17821;BME280;9035;42.554;23.188;2022-09-20T01:11:56;90007.06;;;10.31;59.30
17821;BME280;9035;42.554;23.188;2022-09-20T01:14:24;90003.00;;;10.42;59.67
17821;BME280;9035;42.554;23.188;2022-09-20T01:16:54;90004.88;;;10.53;59.02
17821;BME280;9035;42.554;23.188;2022-09-20T01:19:30;90002.50;;;10.60;59.67
17821;BME280;9035;42.554;23.188;2022-09-20T01:22:01;90011.47;;;10.63;60.05
17821;BME280;9035;42.554;23.188;2022-09-20T01:24:36;90015.69;;;10.55;58.58
17821;BME280;9035;42.554;23.188;2022-09-20T01:27:14;90019.84;;;10.36;59.18
17821;BME280;9035;42.554;23.188;2022-09-20T01:30:00;90021.81;;;10.51;59.17
17821;BME280;9035;42.554;23.188;2022-09-20T01:32:37;90018.78;;;10.37;59.22
17821;BME280;9035;42.554;23.188;2022-09-20T01:35:06;90024.31;;;10.59;58.91
17821;BME280;9035;42.554;23.188;2022-09-20T01:37:41;90022.03;;;10.46;59.42
17821;BME280;9035;42.554;23.188;2022-09-20T01:40:18;90021.78;;;10.39;60.23
17821;BME280;9035;42.554;23.188;2022-09-20T01:42:59;90022.28;;;10.53;60.02
17821;BME280;9035;42.554;23.188;2022-09-20T01:45:31;90028.78;;;10.59;60.15
17821;BME280;9035;42.554;23.188;2022-09-20T01:48:07;90010.56;;;10.47;59.54
17821;BME280;9035;42.554;23.188;2022-09-20T01:50:46;90021.28;;;10.45;59.62
17821;BME280;9035;42.554;23.188;2022-09-20T01:53:57;90013.16;;;10.47;59.90
17821;BME280;9035;42.554;23.188;2022-09-20T01:57:02;90006.06;;;10.56;60.85
17821;BME280;9035;42.554;23.188;2022-09-20T01:59:48;90000.47;;;10.66;59.32
17821;BME280;9035;42.554;23.188;2022-09-20T02:08:32;89987.41;;;10.62;59.49
17821;BME280;9035;42.554;23.188;2022-09-20T02:11:10;89989.88;;;10.59;58.38
17821;BME280;9035;42.554;23.188;2022-09-20T02:13:57;89989.22;;;10.50;59.43
17821;BME280;9035;42.554;23.188;2022-09-20T02:19:41;89985.59;;;10.31;59.54
17821;BME280;9035;42.554;23.188;2022-09-20T02:22:52;89987.56;;;10.45;58.59
17821;BME280;9035;42.554;23.188;2022-09-20T02:25:35;90003.91;;;10.46;58.97
17821;BME280;9035;42.554;23.188;2022-09-20T02:28:18;89999.84;;;10.37;58.94
17821;BME280;9035;42.554;23.188;2022-09-20T02:30:54;89994.78;;;10.40;58.93
17821;BME280;9035;42.554;23.188;2022-09-20T02:33:39;89996.97;;;10.38;59.05
17821;BME280;9035;42.554;23.188;2022-09-20T02:36:34;89997.53;;;10.23;59.35
17821;BME280;9035;42.554;23.188;2022-09-20T02:39:10;90003.38;;;10.20;59.85
17821;BME280;9035;42.554;23.188;2022-09-20T02:41:53;89979.16;;;9.96;59.49
17821;BME280;9035;42.554;23.188;2022-09-20T02:44:28;89999.19;;;10.07;59.61
17821;BME280;9035;42.554;23.188;2022-09-20T02:47:05;89998.63;;;10.02;59.59
17821;BME280;9035;42.554;23.188;2022-09-20T02:49:44;90000.47;;;10.01;60.50
17821;BME280;9035;42.554;23.188;2022-09-20T02:52:25;89997.25;;;10.04;59.78
17821;BME280;9035;42.554;23.188;2022-09-20T02:55:01;90006.94;;;9.87;60.25
17821;BME280;9035;42.554;23.188;2022-09-20T02:57:38;90004.34;;;9.87;60.12
17821;BME280;9035;42.554;23.188;2022-09-20T03:00:12;90007.63;;;9.75;60.03
17821;BME280;9035;42.554;23.188;2022-09-20T03:02:49;90004.66;;;9.65;60.43
17821;BME280;9035;42.554;23.188;2022-09-20T03:05:21;90004.78;;;9.68;60.93
17821;BME280;9035;42.554;23.188;2022-09-20T03:08:06;90000.38;;;9.69;61.01
17821;BME280;9035;42.554;23.188;2022-09-20T03:10:42;89998.94;;;9.80;61.89
17821;BME280;9035;42.554;23.188;2022-09-20T03:13:20;90009.72;;;9.82;60.92
17821;BME280;9035;42.554;23.188;2022-09-20T03:15:56;90011.28;;;9.74;60.77
17821;BME280;9035;42.554;23.188;2022-09-20T03:18:35;90018.25;;;9.82;61.69
17821;BME280;9035;42.554;23.188;2022-09-20T03:21:20;90016.84;;;9.85;60.49
17821;BME280;9035;42.554;23.188;2022-09-20T03:23:59;90008.72;;;9.95;58.50
17821;BME280;9035;42.554;23.188;2022-09-20T03:26:37;90017.44;;;9.90;59.22
17821;BME280;9035;42.554;23.188;2022-09-20T03:29:17;90017.75;;;9.68;59.30
17821;BME280;9035;42.554;23.188;2022-09-20T03:31:58;90022.94;;;9.40;59.65
17821;BME280;9035;42.554;23.188;2022-09-20T03:34:38;90022.00;;;9.44;60.53
17821;BME280;9035;42.554;23.188;2022-09-20T03:37:22;90028.59;;;9.33;60.84
17821;BME280;9035;42.554;23.188;2022-09-20T03:40:07;90026.50;;;9.56;60.43
17821;BME280;9035;42.554;23.188;2022-09-20T03:42:45;90025.41;;;9.56;60.00
17821;BME280;9035;42.554;23.188;2022-09-20T03:45:29;90026.31;;;9.32;60.80
17821;BME280;9035;42.554;23.188;2022-09-20T03:48:24;90023.31;;;9.30;60.81
17821;BME280;9035;42.554;23.188;2022-09-20T03:51:03;90013.47;;;9.44;61.31
17821;BME280;9035;42.554;23.188;2022-09-20T03:56:56;90010.56;;;9.45;60.84
17821;BME280;9035;42.554;23.188;2022-09-20T03:59:54;90013.34;;;9.40;60.42
17821;BME280;9035;42.554;23.188;2022-09-20T04:05:33;90021.50;;;9.51;59.99
17821;BME280;9035;42.554;23.188;2022-09-20T04:08:10;90032.91;;;9.78;59.14
17821;BME280;9035;42.554;23.188;2022-09-20T04:10:52;90036.31;;;9.70;59.16
17821;BME280;9035;42.554;23.188;2022-09-20T04:13:33;90032.66;;;9.71;59.29
17821;BME280;9035;42.554;23.188;2022-09-20T04:16:09;90031.22;;;9.54;59.29
17821;BME280;9035;42.554;23.188;2022-09-20T04:18:44;90027.97;;;9.36;59.78
17821;BME280;9035;42.554;23.188;2022-09-20T04:21:19;90034.03;;;9.40;59.62
17821;BME280;9035;42.554;23.188;2022-09-20T04:23:54;90043.66;;;9.40;59.68
17821;BME280;9035;42.554;23.188;2022-09-20T04:26:25;90040.88;;;9.45;60.36
17821;BME280;9035;42.554;23.188;2022-09-20T04:28:57;90031.41;;;9.49;60.09
17821;BME280;9035;42.554;23.188;2022-09-20T04:31:34;90053.94;;;9.48;60.19
17821;BME280;9035;42.554;23.188;2022-09-20T04:34:07;90056.75;;;9.35;61.28
17821;BME280;9035;42.554;23.188;2022-09-20T04:36:55;90059.50;;;9.30;61.67
17821;BME280;9035;42.554;23.188;2022-09-20T04:39:30;90058.00;;;9.20;62.31
17821;BME280;9035;42.554;23.188;2022-09-20T04:42:31;90039.09;;;8.99;62.40
17821;BME280;9035;42.554;23.188;2022-09-20T04:45:25;90054.13;;;9.06;62.38
17821;BME280;9035;42.554;23.188;2022-09-20T04:48:28;90058.66;;;9.09;61.98
17821;BME280;9035;42.554;23.188;2022-09-20T04:51:25;90068.47;;;8.95;62.16
17821;BME280;9035;42.554;23.188;2022-09-20T04:54:30;90061.84;;;9.23;62.03
17821;BME280;9035;42.554;23.188;2022-09-20T04:57:22;90066.69;;;9.24;61.99
17821;BME280;9035;42.554;23.188;2022-09-20T05:00:02;90079.53;;;9.41;61.26
17821;BME280;9035;42.554;23.188;2022-09-20T05:02:58;90066.69;;;9.24;61.79
17821;BME280;9035;42.554;23.188;2022-09-20T05:05:52;90064.88;;;9.54;61.12
17821;BME280;9035;42.554;23.188;2022-09-20T05:08:48;90064.91;;;9.45;61.49
17821;BME280;9035;42.554;23.188;2022-09-20T05:11:31;90071.34;;;9.68;61.56
17821;BME280;9035;42.554;23.188;2022-09-20T05:14:38;90069.78;;;9.47;61.52
17821;BME280;9035;42.554;23.188;2022-09-20T05:17:22;90067.41;;;9.62;62.22
17821;BME280;9035;42.554;23.188;2022-09-20T05:23:16;90069.47;;;9.48;62.85
17821;BME280;9035;42.554;23.188;2022-09-20T05:26:07;90080.41;;;9.54;62.07
17821;BME280;9035;42.554;23.188;2022-09-20T05:28:45;90080.53;;;9.57;62.17
17821;BME280;9035;42.554;23.188;2022-09-20T05:31:19;90079.50;;;9.78;62.15
17821;BME280;9035;42.554;23.188;2022-09-20T05:33:51;90075.91;;;10.00;61.85
17821;BME280;9035;42.554;23.188;2022-09-20T05:36:28;90082.59;;;10.01;61.63
17821;BME280;9035;42.554;23.188;2022-09-20T05:39:03;90085.69;;;10.35;60.81
17821;BME280;9035;42.554;23.188;2022-09-20T05:41:39;90074.31;;;10.28;60.54
17821;BME280;9035;42.554;23.188;2022-09-20T05:44:18;90055.59;;;10.22;60.42
17821;BME280;9035;42.554;23.188;2022-09-20T05:46:56;90078.03;;;10.38;60.39
17821;BME280;9035;42.554;23.188;2022-09-20T05:49:38;90068.00;;;10.37;61.22
17821;BME280;9035;42.554;23.188;2022-09-20T05:52:17;90067.81;;;10.22;60.62
17821;BME280;9035;42.554;23.188;2022-09-20T05:55:11;90073.59;;;10.19;59.18
17821;BME280;9035;42.554;23.188;2022-09-20T05:57:57;90069.25;;;10.11;61.16
17821;BME280;9035;42.554;23.188;2022-09-20T06:00:29;90063.66;;;10.09;59.83
17821;BME280;9035;42.554;23.188;2022-09-20T06:03:08;90068.88;;;10.00;60.77
17821;BME280;9035;42.554;23.188;2022-09-20T06:05:47;90080.38;;;10.11;62.42
17821;BME280;9035;42.554;23.188;2022-09-20T06:08:29;90083.34;;;10.22;61.41
17821;BME280;9035;42.554;23.188;2022-09-20T06:11:16;90088.53;;;10.22;61.01
17821;BME280;9035;42.554;23.188;2022-09-20T06:13:55;90086.06;;;10.25;61.16
17821;BME280;9035;42.554;23.188;2022-09-20T06:16:32;90088.19;;;10.03;62.09
17821;BME280;9035;42.554;23.188;2022-09-20T06:19:05;90084.88;;;10.02;61.17
17821;BME280;9035;42.554;23.188;2022-09-20T06:21:45;90090.78;;;9.74;62.12
17821;BME280;9035;42.554;23.188;2022-09-20T06:24:23;90081.16;;;9.83;62.09
17821;BME280;9035;42.554;23.188;2022-09-20T06:26:54;90085.13;;;10.09;61.29
17821;BME280;9035;42.554;23.188;2022-09-20T06:29:28;90080.38;;;10.11;62.93
17821;BME280;9035;42.554;23.188;2022-09-20T06:31:55;90083.56;;;10.17;62.49
17821;BME280;9035;42.554;23.188;2022-09-20T06:34:22;90079.75;;;9.85;62.34
17821;BME280;9035;42.554;23.188;2022-09-20T06:36:56;90080.63;;;9.98;62.85
17821;BME280;9035;42.554;23.188;2022-09-20T06:39:48;90087.50;;;10.14;63.96
17821;BME280;9035;42.554;23.188;2022-09-20T06:42:36;90079.41;;;10.56;63.18
17821;BME280;9035;42.554;23.188;2022-09-20T06:45:04;90079.06;;;10.46;62.51
17821;BME280;9035;42.554;23.188;2022-09-20T06:47:31;90088.16;;;10.52;61.14
17821;BME280;9035;42.554;23.188;2022-09-20T06:49:57;90091.94;;;10.54;60.85
17821;BME280;9035;42.554;23.188;2022-09-20T06:52:24;90093.69;;;10.62;60.92
17821;BME280;9035;42.554;23.188;2022-09-20T06:54:53;90101.75;;;10.81;60.32
17821;BME280;9035;42.554;23.188;2022-09-20T06:57:23;90098.84;;;10.83;59.87
17821;BME280;9035;42.554;23.188;2022-09-20T06:59:54;90099.50;;;10.59;60.06
17821;BME280;9035;42.554;23.188;2022-09-20T07:02:20;90111.03;;;10.50;61.27
17821;BME280;9035;42.554;23.188;2022-09-20T07:04:47;90112.88;;;10.49;59.78
17821;BME280;9035;42.554;23.188;2022-09-20T07:07:16;90106.00;;;10.86;60.84
17821;BME280;9035;42.554;23.188;2022-09-20T07:09:43;90113.34;;;10.96;59.43
17821;BME280;9035;42.554;23.188;2022-09-20T07:12:10;90113.06;;;11.09;61.08
17821;BME280;9035;42.554;23.188;2022-09-20T07:14:37;90114.31;;;11.23;60.57
17821;BME280;9035;42.554;23.188;2022-09-20T07:17:05;90114.13;;;11.40;59.71
17821;BME280;9035;42.554;23.188;2022-09-20T07:19:32;90121.69;;;11.45;57.98
17821;BME280;9035;42.554;23.188;2022-09-20T07:21:59;90109.00;;;11.52;57.38
17821;BME280;9035;42.554;23.188;2022-09-20T07:24:26;90103.56;;;11.57;59.23
17821;BME280;9035;42.554;23.188;2022-09-20T07:27:00;90107.16;;;11.65;59.03
17821;BME280;9035;42.554;23.188;2022-09-20T07:29:27;90102.78;;;11.45;57.01
17821;BME280;9035;42.554;23.188;2022-09-20T07:31:55;90101.78;;;11.25;58.41
17821;BME280;9035;42.554;23.188;2022-09-20T07:34:24;90100.38;;;11.28;58.13
17821;BME280;9035;42.554;23.188;2022-09-20T07:36:51;90102.44;;;11.34;57.89
17821;BME280;9035;42.554;23.188;2022-09-20T07:39:18;90105.63;;;11.52;56.42
17821;BME280;9035;42.554;23.188;2022-09-20T07:41:45;90100.56;;;11.67;57.53
17821;BME280;9035;42.554;23.188;2022-09-20T07:44:13;90096.97;;;11.84;58.69
17821;BME280;9035;42.554;23.188;2022-09-20T07:46:50;90097.63;;;12.04;56.76
17821;BME280;9035;42.554;23.188;2022-09-20T07:49:18;90079.97;;;11.86;55.80
17821;BME280;9035;42.554;23.188;2022-09-20T07:51:46;90104.66;;;11.92;56.71
17821;BME280;9035;42.554;23.188;2022-09-20T07:54:13;90108.53;;;11.86;55.71
17821;BME280;9035;42.554;23.188;2022-09-20T07:56:40;90108.97;;;11.88;58.10
17821;BME280;9035;42.554;23.188;2022-09-20T07:59:07;90103.91;;;11.80;57.56
17821;BME280;9035;42.554;23.188;2022-09-20T08:01:35;90105.84;;;11.83;57.22
17821;BME280;9035;42.554;23.188;2022-09-20T08:04:03;90107.81;;;11.86;57.08
17821;BME280;9035;42.554;23.188;2022-09-20T08:06:30;90100.75;;;11.86;55.73
17821;BME280;9035;42.554;23.188;2022-09-20T08:08:58;90098.59;;;12.00;56.01
17821;BME280;9035;42.554;23.188;2022-09-20T08:11:25;90100.88;;;11.78;55.62
17821;BME280;9035;42.554;23.188;2022-09-20T08:13:54;90109.75;;;11.77;55.58
17821;BME280;9035;42.554;23.188;2022-09-20T08:16:22;90110.28;;;11.70;54.50
17821;BME280;9035;42.554;23.188;2022-09-20T08:18:51;90114.69;;;11.58;55.23
17821;BME280;9035;42.554;23.188;2022-09-20T08:21:22;90120.56;;;11.67;55.05
17821;BME280;9035;42.554;23.188;2022-09-20T08:23:49;90120.34;;;11.60;55.36
17821;BME280;9035;42.554;23.188;2022-09-20T08:26:19;90114.75;;;11.82;54.91
17821;BME280;9035;42.554;23.188;2022-09-20T08:28:49;90113.53;;;12.03;56.05
17821;BME280;9035;42.554;23.188;2022-09-20T08:31:19;90114.91;;;12.36;54.91
17821;BME280;9035;42.554;23.188;2022-09-20T08:33:47;90106.06;;;12.65;53.68
17821;BME280;9035;42.554;23.188;2022-09-20T08:36:16;90095.72;;;12.80;53.56
17821;BME280;9035;42.554;23.188;2022-09-20T08:38:43;90099.75;;;13.05;52.38
17821;BME280;9035;42.554;23.188;2022-09-20T08:41:12;90094.38;;;13.13;54.36
17821;BME280;9035;42.554;23.188;2022-09-20T08:43:46;90094.22;;;13.22;50.94
17821;BME280;9035;42.554;23.188;2022-09-20T08:46:16;90098.41;;;13.11;49.87
17821;BME280;9035;42.554;23.188;2022-09-20T08:48:44;90094.88;;;13.03;51.00
17821;BME280;9035;42.554;23.188;2022-09-20T08:51:13;90103.63;;;13.11;51.01
17821;BME280;9035;42.554;23.188;2022-09-20T08:53:44;90093.81;;;13.35;51.77
17821;BME280;9035;42.554;23.188;2022-09-20T08:56:12;90094.44;;;13.44;49.23
17821;BME280;9035;42.554;23.188;2022-09-20T08:58:40;90094.88;;;13.62;48.99
17821;BME280;9035;42.554;23.188;2022-09-20T09:01:10;90095.38;;;13.52;48.96
17821;BME280;9035;42.554;23.188;2022-09-20T09:03:39;90081.06;;;13.61;49.62
17821;BME280;9035;42.554;23.188;2022-09-20T09:06:10;90075.78;;;13.73;49.22
17821;BME280;9035;42.554;23.188;2022-09-20T09:08:39;90083.16;;;14.02;48.91
17821;BME280;9035;42.554;23.188;2022-09-20T09:11:07;90055.94;;;14.15;47.10
17821;BME280;9035;42.554;23.188;2022-09-20T09:13:43;90076.66;;;14.27;47.68
17821;BME280;9035;42.554;23.188;2022-09-20T09:16:14;90069.97;;;14.44;50.01
17821;BME280;9035;42.554;23.188;2022-09-20T09:18:44;90068.38;;;14.40;47.55
17821;BME280;9035;42.554;23.188;2022-09-20T09:21:17;90064.31;;;14.24;48.31
17821;BME280;9035;42.554;23.188;2022-09-20T09:23:49;90061.22;;;14.18;45.97
17821;BME280;9035;42.554;23.188;2022-09-20T09:26:19;90067.16;;;14.34;47.84
17821;BME280;9035;42.554;23.188;2022-09-20T09:29:06;90058.22;;;14.35;47.07
17821;BME280;9035;42.554;23.188;2022-09-20T09:31:34;90059.47;;;14.41;46.97
17821;BME280;9035;42.554;23.188;2022-09-20T09:34:02;90058.47;;;14.30;47.93
17821;BME280;9035;42.554;23.188;2022-09-20T09:36:29;90058.69;;;14.41;46.77
17821;BME280;9035;42.554;23.188;2022-09-20T09:39:15;90064.22;;;14.54;45.16
17821;BME280;9035;42.554;23.188;2022-09-20T09:41:47;90055.44;;;14.81;43.99
17821;BME280;9035;42.554;23.188;2022-09-20T09:44:21;90059.25;;;15.06;44.35
17821;BME280;9035;42.554;23.188;2022-09-20T09:46:49;90060.78;;;14.88;45.01
17821;BME280;9035;42.554;23.188;2022-09-20T09:49:17;90053.22;;;14.83;44.66
17821;BME280;9035;42.554;23.188;2022-09-20T09:51:59;90062.03;;;14.94;45.22
17821;BME280;9035;42.554;23.188;2022-09-20T09:54:28;90064.16;;;14.89;45.34
17821;BME280;9035;42.554;23.188;2022-09-20T10:00:04;90054.00;;;15.44;46.18
17821;BME280;9035;42.554;23.188;2022-09-20T10:06:03;90052.41;;;15.84;43.17
17821;BME280;9035;42.554;23.188;2022-09-20T10:08:39;90055.44;;;15.86;43.02
17821;BME280;9035;42.554;23.188;2022-09-20T10:11:19;90047.50;;;16.05;43.37
17821;BME280;9035;42.554;23.188;2022-09-20T10:13:55;90051.78;;;15.68;41.94
17821;BME280;9035;42.554;23.188;2022-09-20T10:16:46;90054.34;;;15.42;44.23
17821;BME280;9035;42.554;23.188;2022-09-20T10:19:21;90054.91;;;15.77;44.11
17821;BME280;9035;42.554;23.188;2022-09-20T10:21:55;90049.28;;;15.75;42.80
17821;BME280;9035;42.554;23.188;2022-09-20T10:24:32;90042.06;;;16.17;41.52
17821;BME280;9035;42.554;23.188;2022-09-20T10:27:27;90048.00;;;16.14;41.24
17821;BME280;9035;42.554;23.188;2022-09-20T10:30:03;90046.78;;;15.82;43.19
17821;BME280;9035;42.554;23.188;2022-09-20T10:32:53;90048.97;;;16.03;42.70
17821;BME280;9035;42.554;23.188;2022-09-20T10:35:28;90045.31;;;16.07;42.61
17821;BME280;9035;42.554;23.188;2022-09-20T10:38:11;90045.50;;;16.21;42.90
17821;BME280;9035;42.554;23.188;2022-09-20T10:40:50;90044.78;;;16.50;44.87
17821;BME280;9035;42.554;23.188;2022-09-20T10:43:47;90055.22;;;17.08;42.77
17821;BME280;9035;42.554;23.188;2022-09-20T10:46:25;90059.38;;;16.51;41.58
17821;BME280;9035;42.554;23.188;2022-09-20T10:49:02;90067.06;;;16.14;41.53
17821;BME280;9035;42.554;23.188;2022-09-20T10:51:38;90058.63;;;16.24;43.28
17821;BME280;9035;42.554;23.188;2022-09-20T10:54:21;90063.09;;;16.50;42.96
17821;BME280;9035;42.554;23.188;2022-09-20T10:57:10;90062.59;;;16.15;42.43
17821;BME280;9035;42.554;23.188;2022-09-20T10:59:52;90021.94;;;16.21;41.72
17821;BME280;9035;42.554;23.188;2022-09-20T11:02:37;90060.19;;;16.55;41.83
17821;BME280;9035;42.554;23.188;2022-09-20T11:05:22;90056.94;;;16.61;39.77
17821;BME280;9035;42.554;23.188;2022-09-20T11:08:03;90056.31;;;17.04;39.42
17821;BME280;9035;42.554;23.188;2022-09-20T11:10:34;90049.63;;;17.39;38.33
17821;BME280;9035;42.554;23.188;2022-09-20T11:13:07;90045.59;;;17.92;38.33
17821;BME280;9035;42.554;23.188;2022-09-20T11:15:41;90033.78;;;17.69;37.03
17821;BME280;9035;42.554;23.188;2022-09-20T11:18:11;90045.22;;;17.17;38.44
17821;BME280;9035;42.554;23.188;2022-09-20T11:20:54;90041.88;;;17.17;37.71
17821;BME280;9035;42.554;23.188;2022-09-20T11:23:26;90036.91;;;17.81;37.73
17821;BME280;9035;42.554;23.188;2022-09-20T11:25:56;90038.53;;;19.34;35.05
17821;BME280;9035;42.554;23.188;2022-09-20T11:28:30;90044.38;;;18.93;36.12
17821;BME280;9035;42.554;23.188;2022-09-20T11:31:03;90038.88;;;18.48;37.15
17821;BME280;9035;42.554;23.188;2022-09-20T11:33:36;90038.50;;;17.96;38.27
17821;BME280;9035;42.554;23.188;2022-09-20T11:36:12;90048.31;;;17.63;38.41
17821;BME280;9035;42.554;23.188;2022-09-20T11:38:45;90040.75;;;19.22;37.42
17821;BME280;9035;42.554;23.188;2022-09-20T11:41:16;90030.25;;;21.03;32.62
17821;BME280;9035;42.554;23.188;2022-09-20T11:43:45;90018.44;;;22.87;30.15
17821;BME280;9035;42.554;23.188;2022-09-20T11:46:18;90024.66;;;22.30;30.98
17821;BME280;9035;42.554;23.188;2022-09-20T11:48:49;90018.81;;;21.37;32.07
17821;BME280;9035;42.554;23.188;2022-09-20T11:51:54;90026.81;;;21.13;32.03
17821;BME280;9035;42.554;23.188;2022-09-20T11:54:49;90023.25;;;19.96;33.08
17821;BME280;9035;42.554;23.188;2022-09-20T11:57:20;90015.34;;;21.54;32.66
17821;BME280;9035;42.554;23.188;2022-09-20T11:59:51;90016.28;;;23.46;28.08
17821;BME280;9035;42.554;23.188;2022-09-20T12:02:22;90014.69;;;25.22;26.39
17821;BME280;9035;42.554;23.188;2022-09-20T12:04:50;90002.63;;;26.59;24.54
17821;BME280;9035;42.554;23.188;2022-09-20T12:07:22;89998.38;;;26.61;25.09
17821;BME280;9035;42.554;23.188;2022-09-20T12:09:53;90001.75;;;28.03;23.96
17821;BME280;9035;42.554;23.188;2022-09-20T12:12:30;90001.97;;;27.56;25.20
17821;BME280;9035;42.554;23.188;2022-09-20T12:15:00;90018.56;;;25.17;26.49
17821;BME280;9035;42.554;23.188;2022-09-20T12:20:59;90002.97;;;23.23;29.06
17821;BME280;9035;42.554;23.188;2022-09-20T12:23:59;90001.94;;;22.36;29.95
17821;BME280;9035;42.554;23.188;2022-09-20T12:26:41;89999.81;;;22.17;30.53
17821;BME280;9035;42.554;23.188;2022-09-20T12:32:57;90004.34;;;22.64;30.13
17821;BME280;9035;42.554;23.188;2022-09-20T12:35:59;89995.91;;;25.68;24.39
17821;BME280;9035;42.554;23.188;2022-09-20T12:39:02;89990.94;;;25.70;25.92
17821;BME280;9035;42.554;23.188;2022-09-20T12:41:47;89981.59;;;26.92;25.42
17821;BME280;9035;42.554;23.188;2022-09-20T12:44:24;89989.19;;;27.91;24.06
17821;BME280;9035;42.554;23.188;2022-09-20T12:46:53;89991.06;;;28.90;23.38
17821;BME280;9035;42.554;23.188;2022-09-20T12:49:48;89995.25;;;28.17;23.08
17821;BME280;9035;42.554;23.188;2022-09-20T12:52:46;89999.84;;;26.14;24.79
17821;BME280;9035;42.554;23.188;2022-09-20T12:55:37;89994.22;;;26.12;24.51
17821;BME280;9035;42.554;23.188;2022-09-20T12:58:47;89992.84;;;28.22;22.75
17821;BME280;9035;42.554;23.188;2022-09-20T13:01:36;89996.75;;;28.67;22.62
17821;BME280;9035;42.554;23.188;2022-09-20T13:04:38;89990.97;;;27.13;23.83
17821;BME280;9035;42.554;23.188;2022-09-20T13:10:28;89981.38;;;30.42;21.67
17821;BME280;9035;42.554;23.188;2022-09-20T13:13:12;89983.31;;;29.81;20.88
17821;BME280;9035;42.554;23.188;2022-09-20T13:15:47;89982.19;;;29.70;21.84
17821;BME280;9035;42.554;23.188;2022-09-20T13:18:15;89979.88;;;30.41;20.51
17821;BME280;9035;42.554;23.188;2022-09-20T13:20:44;89979.84;;;29.50;22.36
17821;BME280;9035;42.554;23.188;2022-09-20T13:23:19;89972.09;;;30.65;21.05
17821;BME280;9035;42.554;23.188;2022-09-20T13:25:47;89976.66;;;31.21;20.60
17821;BME280;9035;42.554;23.188;2022-09-20T13:28:25;89976.28;;;32.18;20.21
17821;BME280;9035;42.554;23.188;2022-09-20T13:31:23;89974.50;;;30.81;20.41
17821;BME280;9035;42.554;23.188;2022-09-20T13:33:50;89974.00;;;31.21;20.66
17821;BME280;9035;42.554;23.188;2022-09-20T13:36:23;89983.59;;;30.92;21.20
17821;BME280;9035;42.554;23.188;2022-09-20T13:38:52;89975.78;;;30.58;21.14
17821;BME280;9035;42.554;23.188;2022-09-20T13:41:19;89981.03;;;30.01;21.48
17821;BME280;9035;42.554;23.188;2022-09-20T13:43:49;89980.63;;;30.03;20.85
17821;BME280;9035;42.554;23.188;2022-09-20T13:46:21;89986.78;;;28.93;21.46
17821;BME280;9035;42.554;23.188;2022-09-20T13:48:53;89975.91;;;27.63;22.94
17821;BME280;9035;42.554;23.188;2022-09-20T13:51:24;89983.94;;;27.88;23.20
17821;BME280;9035;42.554;23.188;2022-09-20T13:53:52;89980.44;;;28.16;23.21
17821;BME280;9035;42.554;23.188;2022-09-20T13:56:22;89990.69;;;27.52;23.24
17821;BME280;9035;42.554;23.188;2022-09-20T13:58:52;89951.13;;;28.74;23.05
17821;BME280;9035;42.554;23.188;2022-09-20T14:01:23;89969.16;;;30.02;21.99
17821;BME280;9035;42.554;23.188;2022-09-20T14:03:53;89964.59;;;31.08;21.20
17821;BME280;9035;42.554;23.188;2022-09-20T14:06:24;89970.00;;;30.69;21.19
17821;BME280;9035;42.554;23.188;2022-09-20T14:08:54;89971.69;;;29.75;21.22
17821;BME280;9035;42.554;23.188;2022-09-20T14:11:24;89972.66;;;30.20;20.69
17821;BME280;9035;42.554;23.188;2022-09-20T14:13:54;89976.38;;;30.14;20.96
17821;BME280;9035;42.554;23.188;2022-09-20T14:16:26;89969.81;;;31.11;20.78
17821;BME280;9035;42.554;23.188;2022-09-20T14:18:54;89963.69;;;31.11;20.17
17821;BME280;9035;42.554;23.188;2022-09-20T14:21:23;89968.06;;;30.60;20.47
17821;BME280;9035;42.554;23.188;2022-09-20T14:23:52;89978.72;;;29.27;21.96
17821;BME280;9035;42.554;23.188;2022-09-20T14:26:24;89960.91;;;28.44;22.71